TAF Text Data
IDs:
Format:
Raw Decoded Include METAR

Data at: 1250 UTC 24 May 2022

KTYS 241153Z 00000KT 4SM -RA BR OVC006 17/16 A3011 RMK AO2 RAB50 SLP188 P0000 60000 70122 T01670156 10172 20167 53019 $

KTYS 241120Z 2412/2512 00000KT 6SM BR OVC005
  TEMPO 2412/2414 BKN008
  FM241400 00000KT P6SM BKN015
  FM241600 00000KT P6SM BKN025
  FM241800 VRB03KT P6SM SCT040 BKN100
  PROB30 2500/2506 4SM -SHRA BR OVC025
  FM250600 00000KT P6SM BKN070


KGSO 241223Z VRB06KT 3SM -RA BR OVC005 14/13 A3008 RMK AO2 CIG 003V007 P0001 T01440133

KGSO 241120Z 2412/2512 03010KT 3SM BR OVC004
  FM241400 04010KT 5SM BR OVC004
  FM241800 04010KT P6SM OVC007
  FM250000 05008KT P6SM OVC003


KCLT 241152Z 34005KT 10SM BKN005 OVC032 17/16 A3009 RMK SLP183 60002 70064 T01670156 10206 20167 52021

KCLT 241126Z 2412/2518 34006KT 6SM -DZ BR SCT006 OVC012
  TEMPO 2412/2414 BKN006
  FM241400 36005KT P6SM BKN013
  FM241700 02006KT P6SM BKN025
  FM242000 04009KT P6SM SCT030 BKN050
  FM250200 03009KT P6SM BKN025
  FM250600 04007KT P6SM OVC009


KRDU 241220Z 20006KT 10SM FEW007 BKN013 OVC016 21/19 A3007 RMK AO2 T02110194 PNO

KRDU 241120Z 2412/2512 07009KT 5SM BR SCT004 OVC015
  FM241400 08009KT 5SM BR OVC005
  FM241700 35006KT P6SM OVC007
  FM241900 02005KT 4SM -SHRA BR OVC007
  FM242100 04006KT 6SM BR OVC007


KPOB 241156Z AUTO 22008KT 10SM OVC012 22/19 A3005 RMK AO2 OVC V BKN CIG 011 RWY05 SLP177 70133 T02200193 10220 20205 53007 $

TAF AMD KPOB 240140Z 2401/2507 12009KT 8000 -SHRA VCTS SCT008 BKN015CB OVC040 QNH3003INS
  TEMPO 2401/2403 VRB25G37KT 1600 TSRA SCT010 BKN015CB OVC050
  TEMPO 2403/2405 VRB15G25KT 1600 TSRA BKN005 OVC010CB
  BECMG 2404/2405 16009KT 8000 -SHRA BR BKN005 OVC007 QNH2995INS
  BECMG 2414/2415 21012G18KT 8000 -SHRA SCT010 BKN020 BKN080 OVC120 QNH2998INS
  BECMG 2416/2417 32012G18KT 9999 NSW SCT025 BKN040 BKN150 QNH2998INS
  BECMG 2422/2423 35009KT 9999 VCSH SCT008 BKN012 OVC020 QNH3016INS
  BECMG 2503/2504 02006KT 8000 BR SCT005 BKN007 QNH3018INS TX25/2420Z TN20/2410Z LAST NO AMDS AFT 2402 NEXT 2417


KFBG 241236Z AUTO 22008KT 10SM BKN012 23/20 A3005 RMK AO2 BKN V SCT SLP177 $

TAF AMD KFBG 240350Z 2403/2507 12009KT 6000 -RA BKN015 OVC040 510103 QNH3000INS
  TEMPO 2403/2404 VRB25G35KT 1600 +TSRA BKN009CB OVC017
  BECMG 2403/2404 20009KT 8000 -SHRA BKN007 510103 QNH3007INS
  BECMG 2417/2418 26012KT 9999 NSW BKN040 QNH3005INS
  BECMG 2421/2422 35012KT 9000 -SHRA BKN024 QNH3007INS TX26/2419Z TN17/2407Z


KFAY 241153Z 20010KT 10SM CLR 23/20 A3006 RMK AO2 SLP171 70010 T02280200 10228 20200 53005

KFAY 241120Z 2412/2512 14006KT P6SM SCT015 BKN040
  FM241600 30011G18KT P6SM VCSH OVC025
  FM242200 34011KT P6SM OVC015
  FM250000 35007KT P6SM OVC015
  FM250100 01007KT P6SM OVC007


KRWI 241227Z AUTO 00000KT 3SM -RA BR OVC002 20/19 A3008 RMK AO2 P0008 T02000189

KRWI 241120Z 2412/2512 11006KT 4SM -DZ BR OVC003
  TEMPO 2412/2414 1 1/2SM BR OVC001
  FM241400 08009KT 5SM BR OVC003
  FM241600 35006KT P6SM OVC007
  FM241800 02005KT 4SM -SHRA BR OVC007
  FM242100 04006KT 5SM BR OVC007


KISO 241156Z 15008KT 7SM OVC005 23/22 A3009

KISO 241120Z 2412/2512 11008KT 5SM BR BKN005
  FM241400 19010KT P6SM SHRA SCT005 BKN015
  FM241700 23010KT P6SM SHRA VCTS BKN030CB
  FM242200 29010KT P6SM BKN025
  FM250200 35008KT 3SM BR BKN007 AMD LTD TO CLD VIS AND WIND


KGWW 241235Z AUTO 18005KT 10SM SCT008 BKN016 OVC023 23/23 A3007 RMK AO2 T02340232


KGSB 241241Z 16004KT 10SM BKN010 BKN016 OVC022 24/22 A3005 RMK AO2A CIG 013V017 SLP179 $

TAF AMD KGSB 241230Z 2412/2518 01006KT 9999 BKN007 QNH3005INS
  TEMPO 2413/2415 BKN010
  BECMG 2414/2415 21010G18KT 9000 -SHRA OVC012 QNH3005INS
  TEMPO 2418/2422 20020G30KT 2400 -TSRA BKN015CB
  BECMG 2502/2503 33012KT 9000 BR OVC004 QNH3008INS
  BECMG 2514/2515 01012KT 9999 OVC012 QNH3020INS TX27/2417Z TN16/2508Z


KDPL 241235Z 7SM BR BKN011 BKN016 25/23 A3008 RMK AO2


KCTZ 241235Z AUTO 22006KT 10SM OVC013 24/23 A3008 RMK AO2 T02420234


KORF 241151Z 10006KT 10SM FEW010 OVC037 17/16 A3014 RMK AO2 SLP204 60013 70013 T01670156 10172 20161 53009

KORF 241120Z 2412/2512 07005KT P6SM VCSH SCT025 OVC040
  FM241300 08010KT 4SM -RA OVC025
  FM241400 11011G20KT 3SM -RA BR OVC008
  FM250000 06014G22KT 2SM -RA BR OVC004


KLFI 241208Z 08009KT 9SM FEW012 OVC039 17/17 A3015 RMK AO2A DZE08 SLP216 $

TAF KLFI 240900Z 2409/2515 07010G15KT 9000 -RA BKN020 OVC050 QNH3011INS
  BECMG 2414/2415 08012G18KT 4800 RA FEW005 OVC010 QNH3012INS
  TEMPO 2415/2419 07015G25KT 3200 RA BKN005 OVC010
  BECMG 2420/2421 05015G25KT 6000 -RA OVC010 QNH3012INS
  BECMG 2508/2509 02009KT 8000 DZ BR OVC015 QNH3013INS TX18/2417Z TN16/2411Z


KNTU 241156Z 10008KT 10SM FEW010 OVC035 19/16 A3014 RMK AO2 SLP207 60004 70004 T01890156 10189 20183 51012

TAF AMD KNTU 2409/2507 08010KT 6000 -RA BR BKN030 OVC080 QNH3001INS
  BECMG 2411/2413 08013G23KT 4800 RA BR BKN010 OVC020 QNH3004INS
  BECMG 2416/2418 08016G24KT 4800 RA BR VCTS BKN005CB OVC010 QNH3005INS
  TEMPO 2418/2422 VRB20G30KT 1600 TSRA BR OVC005CB
  BECMG 2422/2500 06019G28KT 3200 RA BR OVC005 QNH3008INS T16/2410Z T22/2419Z AMD 0938 FN20011


KECG 241205Z 10010KT 10SM FEW012 OVC028 19/16 A3014 RMK AO2 T01940161

TAF COR KECG 241135Z 2412/2512 08008KT P6SM VCSH BKN030
  FM241400 10010KT 6SM -SHRA BR SCT006 OVC012
  FM242000 07009KT 4SM -SHRA BR SCT004 OVC006
  FM250200 03009KT 2SM -SHRA BR OVC004


KEWN 241154Z 17004KT 10SM OVC13 23/22 A3010

KEWN 241120Z 2412/2512 13010KT P6SM SHRA BKN025
  FM241800 19010KT P6SM SHRA VCTS SCT025 OVC040CB
  FM250300 30010KT 6SM BR BKN007


KNKT 241156Z 18004KT 7SM BKN012 OVC017 23/22 A3011 RMK SLP191 70069 T02280222 10228 20200 51009

TAF AMD KNKT 2410/2509 15010KT 9999 OVC010 540104 QNH3003INS
  TEMPO 2416/2422 20010KT 6000 TSRA BR BKN030CB OVC050
  BECMG 2422/2500 VRB06KT 9999 BKN030 BKN080 500000 QNH3004INS T27/2417Z T19/2508Z AMD 1024


KILM 241231Z 18008KT 10SM BKN015 27/23 A3009 RMK AO2 T02670228

KILM 241240Z 2413/2512 18006KT P6SM SCT035 BKN120
  TEMPO 2413/2414 BKN015
  FM241700 21010KT P6SM VCSH SCT040
  TEMPO 2418/2422 4SM TSRA BKN040CB
  FM250000 25005KT P6SM BKN120
  FM250300 33004KT P6SM BKN020
  FM250600 36005KT P6SM OVC010


KCAE 241156Z 25005KT 6SM BR BKN008 OVC180 22/20 A3007 RMK AO2 SLP179 70062 T02170200 10217 20206 53013

KCAE 241129Z 2412/2512 VRB04KT P6SM SCT015 BKN100
  TEMPO 2412/2414 BKN015
  FM241500 23007KT P6SM BKN035
  FM242300 26006KT P6SM VCSH SCT050 BKN100
  FM250200 06007KT P6SM SCT015 BKN040
  FM250600 05007KT P6SM SCT007 BKN015


KSSC 241156Z 20006KT 10SM FEW007 BKN150 BKN220 21/19 A3007 RMK AO2A SLP183 70033 T02060194 10206 20194 52013 $

TAF AMD KSSC 241210Z 2412/2513 19009KT 9999 FEW007 BKN150 BKN220 QNH3005INS
  BECMG 2414/2415 24009KT 9999 SCT025 BKN055 BKN150 QNH3001INS
  BECMG 2423/2424 03015G25KT 8000 -TSRA BKN040CB OVC055 QNH3007INS
  BECMG 2503/2504 04009KT 9999 NSW OVC017 QNH3010INS TX27/2418Z TN21/2412Z


KMMT 241246Z 21006KT 10SM SCT005 BKN015 BKN180 22/22 A3007 RMK AO2A SLP184 $

TAF KMMT 240700Z 2407/2513 19006KT 9999 FEW150 QNH3004INS
  TEMPO 2408/2413 VRB06KT 8000 BR BKN002
  BECMG 2415/2416 26012KT 9999 SCT017 QNH3008INS
  TEMPO 2422/2501 VRB15G20KT 4800 TSRA BKN020CB
  BECMG 2504/2505 04006KT 8000 BR BKN010 QNH3017INS TX27/2418Z TN19/2411Z


KMYR 241156Z 19006KT 10SM CLR 24/23 A3009 RMK AO2 SLP188 T02440233 10244 20239 53010

KMYR 241120Z 2412/2512 20008KT P6SM SCT035 BKN120
  FM241800 20012KT P6SM VCTS SCT040CB
  FM250000 29007KT P6SM SCT020
  FM250400 36005KT P6SM BKN020
  FM250800 36005KT P6SM BKN010


KCHS 241156Z 20006KT 10SM FEW015 SCT120 BKN200 24/23 A3008 RMK AO2 SLP184 T02440228 10244 20228 52012

TAF COR KCHS 241157Z 2412/2512 19005KT P6SM FEW015 SCT100 BKN200
  FM241400 22009KT P6SM SCT035 BKN200
  FM241930 19012G17KT P6SM SCT040 BKN150
  FM250100 18008KT P6SM FEW030 BKN200
  FM250700 03004KT P6SM SCT020 BKN035


KSAV 241153Z 00000KT 10SM FEW015 FEW170 OVC250 23/22 A3008 RMK AO2 SLP184 70055 T02330217 10233 20206 53012

KSAV 241120Z 2412/2512 19003KT P6SM SCT020 BKN200
  FM241400 20008KT P6SM SCT030 BKN150
  FM241930 16011G16KT P6SM SCT040 BKN200
  FM250100 15007KT P6SM FEW020 BKN150
  FM250700 08003KT P6SM SCT015 BKN035


KSVN 241241Z AUTO 18006KT 10SM BKN011 BKN035 26/26 A3006 RMK AO2 SLP182 $

TAF KSVN 241200Z 2412/2518 20006KT 9999 SCT250 QNH3002INS
  BECMG 2415/2416 20009KT 9000 -SHRA BKN035 QNH3007INS
  TEMPO 2418/2423 16015G25KT 8000 -TSRA BKN020CB
  BECMG 2500/2501 18009KT 9999 NSW FEW030 QNH3013INS
  BECMG 2508/2509 VRB06KT 8000 BR BKN020 QNH3015INS
  BECMG 2512/2513 VRB06KT 9999 NSW BKN035 QNH3017INS TX28/2419Z TN23/2509Z


KDCA 241152Z 06006KT 10SM FEW011 SCT023 OVC040 16/14 A3022 RMK AO2 RAE52 SLP233 P0001 60027 70029 T01610139 10161 20150 53016

KDCA 241139Z 2412/2518 06006KT 6SM -SHRA FEW008 SCT025 OVC040
  FM241500 08007KT P6SM OVC025
  FM250100 07005KT P6SM OVC035
  FM251600 06006KT P6SM BKN050


KADW 241212Z 06005KT 10SM -DZ BKN010 BKN040 15/15 A3020 RMK AO2A SLP233 $

TAF AMD KADW 241120Z 2411/2515 07009KT 8000 -RA BR SCT010 OVC020 QNH3017INS
  TEMPO 2411/2414 OVC010
  BECMG 2413/2414 08012KT 9000 -RA SCT006 BKN020 OVC040 QNH3023INS
  BECMG 2421/2422 07012KT 9999 VCSH BKN030 QNH3024INS
  BECMG 2422/2423 09012KT 9999 NSW BKN030 OVC060 QNH3026INS
  BECMG 2502/2503 09009KT 9999 SCT015 BKN060 QNH3024INS
  BECMG 2512/2513 05012KT 9999 SCT050 QNH3029INS TX17/2419Z TN15/2411Z